Etusivu
METAR-TAF:

METAR-TAF

Lentoasemat :

Esbjerg, Tanska

Leveyspiiri: 55-32N, Pituuspiiri: 008-34E, korkeus merenpinnasta: 30 m

Tämänhetkinen sää

Tämä raportti tehtiin 38 minuuttia sitten, kello 11.20 UTC
Tuuli 17 kn lounaasta
Lämpötila 20°C
Kosteus 73%
Ilmanpaine 1017 hPa
Näkyvyys 10 km tai enemmän

METAR: EKEB 181120Z AUTO 22017KT 9999NDV BKN018/// 20/15 Q1017

Aika: 13:58 (11:58 UTC)

Sääennuste

Tämä raportti tehtiin 35 minuuttia sitten, kello 11.23 UTC
Ennuste voimassa 18. päivästä klo 12 UTC - 18. päivään klo 21 UTC
Tuuli 18 kn lounaasta
Näkyvyys 10 km tai enemmän
Hajonneita pilviä 1800 ft:n korkeudessa
Ajoittain
18. päivästä klo 12 UTC - 18. päivään klo 15 UTC
Tuuli 17 kn lounaasta puuskistuen 27 kn:hen
Ajoittain
18. päivästä klo 15 UTC - 18. päivään klo 18 UTC
Hajonneita pilviä 1200 ft:n korkeudessa
heikkoa sadetta

TAF: EKEB 181123Z 1812/1821 22018KT 9999 BKN018 TEMPO 1812/1815 22017G27KT TEMPO 1815/1818 -RA BKN012

Säähavainnot ja -ennusteet yli 4000 lentoasemalta (METAR- ja TAF-raportit).

Käytössä olevat sääasemat on merkitty karttaan keltaisilla ja punaisilla pisteillä.

Aseta hiiri pisteen päälle nähdäksesi sääaseman nimen.

Klikkaa sitten nähdäksesi säähavainnot ja -ennusteet.

Kartan vaihtaminen: klikkaa mustalla rastilla varustettuja vihreitä pisteitä, niin voit zoomata sisään; viivalla varustettua vihreää pistettä, niin voit zoomata ulos tai vihreitä nuolia, niin pääset viereisille kartoille.


METAR-TAF: